Open Full Screen Window  High Contrast Mode
Wind Gusting 28 knots
14
November 24, 2014 9:50 AM EST
Weather Information
Wind Direction
  230 °
Wind Speed
  14 kt (16 mph)
Wind Gust
  28 kt (32 mph)
Altimeter
29.36 in
Visibility
10 SM
Temperature
17° C
63° F
Dewpoint
09° C
48° F
Humidity
59%
1hr Rain Fall
00.00 in.
24hr Rain Fall
00.63 in.
Sky Condition
Overcast @ 7,500 ft
Broken @ 4,700 ft
Broken @ 4,200 ft
VFR

METAR KI69 241450Z AUTO 23014G28KT 10SM BKN042 BKN047 OVC075 17/09 A2936 RMK AO1

*Background is not an actual portrayal of the airport.